Time;durP1;ratioP1;P1;durP2;ratioP2;P2;SDS_P1;SDS_P2;PMS_P1;PMS_P2;Temp;Humidity;BMP_temperature;BMP_pressure;BME280_temperature;BME280_humidity;BME280_pressure;Samples;Min_cycle;Max_cycle;Signal;HPM_P1;HPM_P2
2022/12/26 00:01:43;;;;;;;9.15;4.95;;;;;;;14.47;67.38;99015.91;5092961;28;20016;-47
2022/12/26 00:04:08;;;;;;;9.88;4.45;;;;;;;14.45;66.80;99012.69;5094257;28;20043;-47
2022/12/26 00:06:34;;;;;;;7.68;3.45;;;;;;;14.49;66.26;99032.34;5092875;28;20036;-47
2022/12/26 00:09:02;;;;;;;8.50;5.03;;;;;;;14.43;66.37;99009.47;5094193;28;20533;-47
2022/12/26 00:11:28;;;;;;;7.95;4.85;;;;;;;14.42;66.40;99030.78;5092784;28;20028;-47
2022/12/26 00:13:56;;;;;;;7.35;4.75;;;;;;;14.35;66.47;99013.19;5094025;28;20124;-47
2022/12/26 00:16:22;;;;;;;11.50;3.33;;;;;;;14.25;66.75;99014.69;5093862;28;20020;-47
2022/12/26 00:18:48;;;;;;;8.75;4.07;;;;;;;14.24;67.24;99032.34;5093925;28;20036;-47
2022/12/26 00:21:16;;;;;;;10.10;4.55;;;;;;;14.22;67.32;99023.84;5093868;28;20043;-47
2022/12/26 00:23:42;;;;;;;8.32;3.80;;;;;;;14.26;67.41;99008.38;5093836;28;20502;-47
2022/12/26 00:26:11;;;;;;;7.85;4.53;;;;;;;14.26;67.28;99026.84;5093539;28;20052;-47
2022/12/26 00:28:38;;;;;;;8.73;4.20;;;;;;;14.24;67.30;99027.06;5093767;28;20025;-47
2022/12/26 00:31:05;;;;;;;12.48;4.38;;;;;;;14.13;67.77;99028.59;5092351;28;20125;-47
2022/12/26 00:33:33;;;;;;;18.63;12.20;;;;;;;14.08;68.11;99041.59;5092349;28;20024;-47
2022/12/26 00:36:05;;;;;;;98.72;77.03;;;;;;;14.07;68.55;99031.28;5093482;28;20028;-47
2022/12/26 00:38:31;;;;;;;153.05;136.38;;;;;;;14.07;68.46;99026.81;5093518;28;20043;-47
2022/12/26 00:40:56;;;;;;;407.25;364.13;;;;;;;14.07;68.33;99040.00;5092142;28;20052;-47
2022/12/26 00:43:22;;;;;;;314.92;281.58;;;;;;;14.06;68.56;99013.81;5093381;28;20016;-47
2022/12/26 00:45:48;;;;;;;605.47;541.33;;;;;;;14.17;68.82;99016.56;5093426;28;20401;-47
2022/12/26 00:48:13;;;;;;;427.27;381.67;;;;;;;14.20;68.11;99039.09;5092069;28;20020;-47
2022/12/26 00:50:39;;;;;;;433.45;365.75;;;;;;;14.16;67.96;99043.97;5091911;28;20379;-47
2022/12/26 00:53:05;;;;;;;132.98;109.93;;;;;;;14.15;68.25;99023.09;5091942;28;20039;-47
2022/12/26 00:55:30;;;;;;;241.85;216.75;;;;;;;14.15;68.21;99029.19;5091781;28;20047;-47
2022/12/26 00:57:56;;;;;;;157.77;140.38;;;;;;;14.17;67.89;99026.31;5092255;28;20492;-47
2022/12/26 01:00:22;;;;;;;447.40;283.13;;;;;;;14.15;68.23;99037.09;5091710;28;20036;-47
2022/12/26 01:02:47;;;;;;;336.05;203.23;;;;;;;14.14;67.88;99050.50;5093103;28;20027;-47
2022/12/26 01:05:13;;;;;;;202.52;132.18;;;;;;;14.13;68.36;99020.66;5093035;28;20571;-47
2022/12/26 01:07:39;;;;;;;348.58;288.65;;;;;;;14.10;68.55;99026.34;5092982;28;20038;-47
2022/12/26 01:10:06;;;;;;;234.35;167.88;;;;;;;14.11;68.25;99008.72;5092835;28;20024;-47
2022/12/26 01:12:31;;;;;;;214.25;131.32;;;;;;;14.14;68.08;98990.59;5091591;28;20024;-47
2022/12/26 01:14:58;;;;;;;106.80;84.00;;;;;;;14.12;68.31;99034.88;5092700;28;20118;-47
2022/12/26 01:17:25;;;;;;;166.52;147.98;;;;;;;14.19;68.86;99019.81;5092751;28;20016;-47
2022/12/26 01:19:50;;;;;;;351.83;291.35;;;;;;;14.23;67.76;98996.44;5091832;28;20130;-47
2022/12/26 01:22:16;;;;;;;202.05;168.65;;;;;;;14.22;67.89;99020.41;5092761;28;20016;-47
2022/12/26 01:24:42;;;;;;;180.68;151.18;;;;;;;14.21;67.89;98993.19;5092351;28;20040;-48
2022/12/26 01:27:07;;;;;;;362.17;323.83;;;;;;;14.20;68.82;99015.31;5091327;28;20537;-47
2022/12/26 01:29:33;;;;;;;57.78;51.70;;;;;;;14.43;67.50;99008.63;5092864;28;20138;-46
2022/12/26 01:31:58;;;;;;;94.53;85.03;;;;;;;14.46;67.30;98969.41;5091203;28;20024;-47
2022/12/26 01:34:24;;;;;;;67.78;60.70;;;;;;;14.40;67.18;99009.88;5091195;28;20034;-47
2022/12/26 01:36:51;;;;;;;40.78;36.50;;;;;;;14.31;67.85;99016.47;5091050;28;20031;-47
2022/12/26 01:39:17;;;;;;;78.45;64.93;;;;;;;14.32;68.31;99023.34;5092407;28;20440;-47
2022/12/26 01:41:42;;;;;;;54.47;44.15;;;;;;;14.33;67.79;99020.50;5092374;28;20020;-47
2022/12/26 01:44:50;;;;;;;52.40;46.75;;;;;;;14.25;68.42;99022.63;5092601;28;20035;-47
2022/12/26 01:47:16;;;;;;;23.15;15.15;;;;;;;14.31;68.20;99053.44;5091924;28;20040;-46
2022/12/26 01:49:46;;;;;;;9.27;4.93;;;;;;;14.36;67.63;99029.81;5092307;28;20020;-47
2022/12/26 01:52:20;;;;;;;11.95;6.63;;;;;;;14.40;67.63;99036.28;5090842;28;20501;-47
2022/12/26 01:54:49;;;;;;;36.38;32.30;;;;;;;14.37;68.26;99047.28;5092477;28;20028;-47
2022/12/26 01:57:30;;;;;;;34.38;27.00;;;;;;;14.43;68.09;99054.34;5092162;28;20102;-47
2022/12/26 01:59:57;;;;;;;58.60;52.03;;;;;;;14.39;67.94;99061.09;5092201;28;20024;-47
2022/12/26 02:02:26;;;;;;;60.90;55.10;;;;;;;14.36;68.51;99054.38;5090823;28;20498;-47
2022/12/26 02:07:40;;;;;;;30.42;27.42;;;;;;;14.36;68.23;99048.31;5092384;28;20066;-47
2022/12/26 02:10:11;;;;;;;48.10;41.83;;;;;;;14.32;68.39;99065.59;5090391;28;20027;-47
2022/12/26 02:12:37;;;;;;;58.53;49.95;;;;;;;14.33;68.19;99067.22;5090725;28;20401;-47
2022/12/26 02:15:05;;;;;;;20.08;15.15;;;;;;;14.27;68.56;99068.09;5090852;28;20073;-47
2022/12/26 02:17:31;;;;;;;15.40;7.30;;;;;;;14.18;69.27;99078.91;5091930;28;20512;-47
2022/12/26 02:20:21;;;;;;;13.70;5.45;;;;;;;14.23;69.36;99078.25;5090557;28;20032;-47
2022/12/26 02:22:59;;;;;;;22.80;6.05;;;;;;;14.32;68.94;99068.25;5091873;28;20020;-47
2022/12/26 02:25:50;;;;;;;9.63;3.95;;;;;;;14.33;68.19;99075.94;5091635;28;20612;-47
2022/12/26 02:28:43;;;;;;;14.50;5.40;;;;;;;14.28;68.95;99054.66;5091886;28;20032;-47
2022/12/26 02:31:50;;;;;;;9.80;4.20;;;;;;;14.24;68.37;99058.75;5091836;28;20115;-47
2022/12/26 02:34:25;;;;;;;;;;;;;;;14.13;68.54;99077.94;5083766;28;20418;-47
2022/12/26 02:36:59;;;;;;;9.15;3.55;;;;;;;14.12;69.15;99065.75;5091620;28;19912;-47
2022/12/26 02:39:43;;;;;;;10.30;4.37;;;;;;;14.07;69.02;99037.38;5090521;28;20028;-48
2022/12/26 02:42:19;;;;;;;29.77;22.73;;;;;;;14.13;68.93;99065.53;5091960;28;20254;-47
2022/12/26 02:47:54;;;;;;;23.90;17.27;;;;;;;14.36;68.73;99045.66;5090895;28;20121;-47
2022/12/26 03:14:37;;;;;;;545.60;408.80;;;;;;;14.18;70.16;99052.50;5091664;28;20121;-47
2022/12/26 03:17:21;;;;;;;378.48;328.85;;;;;;;14.22;69.78;99050.22;5091284;28;20020;-47
2022/12/26 03:20:13;;;;;;;104.10;93.75;;;;;;;14.21;69.27;99075.03;5091643;28;20067;-47
2022/12/26 03:22:52;;;;;;;119.85;108.00;;;;;;;14.15;69.16;99066.13;5093587;28;20401;-47
2022/12/26 03:28:33;;;;;;;29.92;23.15;;;;;;;14.16;68.66;99046.63;5095243;28;20058;-47
2022/12/26 03:31:03;;;;;;;19.60;10.82;;;;;;;14.12;68.91;99061.25;5094889;28;20048;-47
2022/12/26 03:36:21;;;;;;;9.85;6.18;;;;;;;14.07;69.06;99074.31;5094906;28;20478;-47
2022/12/26 03:39:14;;;;;;;23.42;16.30;;;;;;;14.08;69.23;99068.00;5094838;28;20076;-47
2022/12/26 04:20:15;;;;;;;11.52;7.70;;;;;;;13.70;70.40;99082.03;5094280;28;20546;-47
2022/12/26 04:45:37;;;;;;;16.98;14.70;;;;;;;13.55;70.10;99063.03;5093840;28;20456;-47
2022/12/26 04:50:51;;;;;;;30.55;27.45;;;;;;;13.60;69.62;99081.66;5093642;28;20035;-47
2022/12/26 04:53:19;;;;;;;17.25;12.95;;;;;;;13.54;69.54;99090.41;5092014;28;20043;-47
2022/12/26 04:55:45;;;;;;;78.35;70.88;;;;;;;13.51;70.04;99062.63;5093201;28;20482;-47
2022/12/26 04:58:10;;;;;;;200.52;179.60;;;;;;;13.49;70.09;99083.13;5093200;28;20028;-47
2022/12/26 05:00:36;;;;;;;177.18;158.95;;;;;;;13.55;69.99;99071.75;5091828;28;20514;-47
2022/12/26 05:11:29;;;;;;;27.70;22.08;;;;;;;13.50;69.65;99081.31;5093274;28;20410;-47
2022/12/26 05:13:56;;;;;;;10.57;7.40;;;;;;;13.51;69.13;99111.94;5091619;28;20093;-47
2022/12/26 05:30:16;;;;;;;7.97;3.67;;;;;;;13.46;69.76;99111.75;5092735;28;20129;-47
2022/12/26 05:35:26;;;;;;;11.52;4.88;;;;;;;13.53;69.58;99112.53;5092524;28;20039;-47
2022/12/26 05:37:51;;;;;;;6.07;3.88;;;;;;;13.51;69.34;99127.75;5092553;28;20028;-47
2022/12/26 05:40:17;;;;;;;35.20;23.27;;;;;;;13.48;69.48;99107.91;5092409;28;20443;-47
2022/12/26 05:42:42;;;;;;;13.38;6.80;;;;;;;13.51;69.38;99115.38;5092436;28;20107;-47
2022/12/26 05:45:08;;;;;;;17.13;13.73;;;;;;;13.54;69.31;99132.59;5090529;28;20061;-47
2022/12/26 05:47:34;;;;;;;8.90;5.07;;;;;;;13.51;69.05;99117.22;5092402;28;20031;-47
2022/12/26 05:49:59;;;;;;;14.60;5.18;;;;;;;13.53;69.57;99138.91;5092326;28;20469;-47
2022/12/26 05:52:25;;;;;;;5.40;3.40;;;;;;;13.52;69.27;99126.72;5092261;28;20039;-47
2022/12/26 05:54:51;;;;;;;9.27;7.78;;;;;;;13.54;68.94;99122.06;5090897;28;20036;-47
2022/12/26 05:57:16;;;;;;;8.27;3.78;;;;;;;13.49;68.79;99129.78;5090841;28;20032;-47
2022/12/26 05:59:42;;;;;;;9.90;3.92;;;;;;;13.43;69.21;99120.09;5092122;28;20080;-47
2022/12/26 06:02:07;;;;;;;12.85;7.47;;;;;;;13.45;69.28;99118.03;5090833;28;20563;-47
2022/12/26 06:04:35;;;;;;;12.50;3.83;;;;;;;13.41;69.42;99124.75;5092387;28;20420;-47
2022/12/26 06:07:01;;;;;;;6.05;3.80;;;;;;;13.44;69.28;99126.97;5092007;28;20016;-47
2022/12/26 06:09:27;;;;;;;12.55;4.40;;;;;;;13.42;69.88;99140.38;5092031;28;20153;-47
2022/12/26 06:11:52;;;;;;;10.10;4.18;;;;;;;13.52;69.51;99110.91;5092033;28;20106;-47
2022/12/26 06:14:18;;;;;;;5.85;3.25;;;;;;;13.63;68.65;99155.09;5092040;28;20506;-47
2022/12/26 06:16:43;;;;;;;14.57;7.78;;;;;;;13.65;68.63;99152.25;5091886;28;20397;-47
2022/12/26 06:19:09;;;;;;;6.57;3.95;;;;;;;13.71;68.21;99123.22;5090967;28;20065;-47
2022/12/26 06:21:35;;;;;;;13.50;6.55;;;;;;;13.80;67.84;99113.22;5091931;28;20028;-47
2022/12/26 06:24:01;;;;;;;8.73;3.80;;;;;;;13.88;67.78;99122.72;5090719;28;20106;-47
2022/12/26 06:26:26;;;;;;;5.53;3.42;;;;;;;13.86;67.69;99135.31;5091607;28;20131;-47
2022/12/26 06:28:52;;;;;;;5.85;4.05;;;;;;;13.74;67.82;99148.34;5090854;28;20024;-47
2022/12/26 06:31:21;;;;;;;10.48;5.82;;;;;;;13.63;68.30;99151.66;5090526;28;20513;-47
2022/12/26 06:33:54;;;;;;;17.77;6.25;;;;;;;13.61;68.35;99127.31;5092052;28;20020;-47
2022/12/26 06:36:23;;;;;;;16.60;10.65;;;;;;;13.58;68.09;99131.16;5091612;28;20086;-47
2022/12/26 06:38:49;;;;;;;19.45;14.05;;;;;;;13.49;68.62;99133.22;5090368;28;20070;-47
2022/12/26 06:41:17;;;;;;;18.52;9.90;;;;;;;13.52;68.37;99139.91;5090426;28;20055;-47
2022/12/26 06:43:43;;;;;;;30.52;27.45;;;;;;;13.52;68.30;99145.19;5092217;28;20054;-47
2022/12/26 06:46:15;;;;;;;22.60;20.17;;;;;;;13.49;68.44;99127.97;5090316;28;20054;-47
2022/12/26 06:48:40;;;;;;;16.20;10.32;;;;;;;13.56;68.13;99168.31;5091693;28;20451;-47
2022/12/26 06:51:10;;;;;;;18.63;12.45;;;;;;;13.58;68.00;99161.00;5090302;28;20028;-47
2022/12/26 06:53:36;;;;;;;8.70;6.18;;;;;;;13.64;67.69;99172.53;5091845;28;20039;-47
2022/12/26 06:56:13;;;;;;;10.20;6.90;;;;;;;13.63;67.17;99144.56;5091314;28;20481;-47
2022/12/26 06:58:39;;;;;;;11.80;6.68;;;;;;;13.60;67.34;99155.50;5094318;28;20114;-47
2022/12/26 07:01:13;;;;;;;11.88;5.72;;;;;;;13.61;67.53;99165.03;5095494;28;20028;-47
2022/12/26 07:03:40;;;;;;;5.72;3.33;;;;;;;13.70;66.96;99152.44;5094180;28;20405;-47
2022/12/26 07:06:11;;;;;;;8.45;5.32;;;;;;;13.77;66.75;99159.31;5095430;28;20482;-47
2022/12/26 07:08:37;;;;;;;11.98;6.78;;;;;;;13.90;66.20;99170.81;5095494;28;20405;-47
2022/12/26 07:11:03;;;;;;;8.95;5.95;;;;;;;14.01;65.51;99172.81;5093972;28;20162;-47
2022/12/26 07:13:29;;;;;;;6.88;5.15;;;;;;;13.97;65.48;99185.59;5095298;28;20107;-47
2022/12/26 07:15:58;;;;;;;7.47;5.45;;;;;;;13.92;65.98;99174.06;5093849;28;20043;-47
2022/12/26 07:18:24;;;;;;;7.43;3.83;;;;;;;13.92;65.25;99177.53;5095224;28;20054;-47
2022/12/26 07:20:49;;;;;;;11.65;7.78;;;;;;;13.93;65.70;99184.41;5095117;28;20461;-47
2022/12/26 07:23:15;;;;;;;8.35;4.47;;;;;;;13.95;65.41;99197.41;5095128;28;20509;-47
2022/12/26 07:25:40;;;;;;;10.13;6.75;;;;;;;13.95;65.54;99184.19;5093572;28;20417;-47
2022/12/26 07:28:06;;;;;;;15.25;9.77;;;;;;;14.00;65.40;99197.56;5093720;28;20028;-47
2022/12/26 07:30:31;;;;;;;5.45;4.03;;;;;;;14.10;65.01;99210.31;5093652;28;20024;-47
2022/12/26 07:32:57;;;;;;;16.85;12.80;;;;;;;14.12;64.72;99192.44;5093607;28;20023;-47
2022/12/26 07:35:22;;;;;;;8.95;6.93;;;;;;;14.18;65.05;99226.75;5094779;28;20050;-47
2022/12/26 07:37:48;;;;;;;7.82;4.53;;;;;;;14.37;64.76;99200.44;5094860;28;20129;-47
2022/12/26 07:40:14;;;;;;;6.05;3.35;;;;;;;14.55;63.62;99189.16;5093467;28;20027;-47
2022/12/26 07:42:39;;;;;;;14.57;5.18;;;;;;;14.53;63.21;99212.34;5093435;28;20038;-47
2022/12/26 07:45:06;;;;;;;5.93;3.55;;;;;;;14.46;63.31;99215.00;5093371;28;20032;-47
2022/12/26 07:47:31;;;;;;;8.07;3.85;;;;;;;14.49;63.38;99225.16;5094600;28;20036;-47
2022/12/26 07:49:57;;;;;;;80.93;59.67;;;;;;;14.49;63.56;99219.06;5094552;28;20016;-47
2022/12/26 07:52:22;;;;;;;601.55;410.10;;;;;;;14.43;63.96;99226.00;5094550;28;20055;-47
2022/12/26 07:54:48;;;;;;;75.85;44.20;;;;;;;14.49;63.77;99246.28;5094412;28;20028;-47
2022/12/26 07:57:14;;;;;;;26.65;17.20;;;;;;;14.48;64.10;99238.56;5093058;28;20024;-47
2022/12/26 07:59:40;;;;;;;10.23;6.70;;;;;;;14.54;63.81;99258.84;5094395;28;20016;-47
2022/12/26 08:02:05;;;;;;;9.02;5.15;;;;;;;14.60;63.21;99270.44;5076155;28;20092;-47
2022/12/26 08:04:31;;;;;;;6.25;3.53;;;;;;;14.61;63.05;99259.66;5094340;28;20103;-47
2022/12/26 08:06:57;;;;;;;11.07;7.45;;;;;;;14.56;63.22;99262.09;5093771;28;20031;-47
2022/12/26 08:09:22;;;;;;;11.65;8.05;;;;;;;14.62;63.29;99276.31;5094504;28;20032;-47
2022/12/26 08:11:48;;;;;;;7.15;4.35;;;;;;;14.74;63.48;99258.75;5093175;28;20039;-47
2022/12/26 08:14:17;;;;;;;8.98;3.15;;;;;;;14.86;62.39;99275.53;5094122;28;20016;-47
2022/12/26 08:16:43;;;;;;;7.60;3.42;;;;;;;14.86;62.72;99272.09;5093933;28;20027;-47
2022/12/26 08:19:10;;;;;;;5.60;3.17;;;;;;;14.85;62.45;99276.56;5092731;28;20406;-47
2022/12/26 08:21:36;;;;;;;13.77;4.07;;;;;;;14.79;62.61;99285.34;5093934;28;20394;-47
2022/12/26 08:24:01;;;;;;;5.25;3.00;;;;;;;14.80;62.97;99283.53;5092633;28;20081;-47
2022/12/26 08:26:27;;;;;;;8.20;2.42;;;;;;;14.84;62.67;99285.50;5093662;28;20522;-47
2022/12/26 08:28:55;;;;;;;7.32;2.90;;;;;;;14.79;63.00;99306.50;5092568;28;20107;-47
2022/12/26 08:31:21;;;;;;;6.63;2.95;;;;;;;14.86;62.83;99286.09;5092490;28;20114;-47
2022/12/26 08:33:47;;;;;;;6.15;2.90;;;;;;;14.85;62.79;99310.94;5093758;28;20557;-47
2022/12/26 08:36:17;;;;;;;5.32;2.25;;;;;;;14.90;62.89;99311.09;5093630;28;20111;-47
2022/12/26 08:38:42;;;;;;;6.93;2.70;;;;;;;14.90;62.84;99302.34;5093562;28;20055;-47
2022/12/26 08:41:08;;;;;;;13.18;3.13;;;;;;;14.93;62.78;99283.41;5092541;28;20052;-47
2022/12/26 08:43:34;;;;;;;4.25;2.13;;;;;;;15.07;62.40;99300.00;5092205;28;20030;-47
2022/12/26 08:46:05;;;;;;;3.28;2.10;;;;;;;15.10;61.90;99303.03;5093519;28;20051;-47
2022/12/26 08:48:31;;;;;;;6.35;2.85;;;;;;;15.09;61.87;99301.41;5093510;28;20118;-47
2022/12/26 08:50:59;;;;;;;7.03;2.58;;;;;;;15.12;62.07;99310.75;5093636;28;20032;-47
2022/12/26 08:53:25;;;;;;;4.82;2.45;;;;;;;15.16;62.08;99312.75;5093311;28;20107;-47
2022/12/26 08:55:51;;;;;;;10.20;2.88;;;;;;;15.22;61.41;99303.16;5093244;28;20020;-47
2022/12/26 08:58:17;;;;;;;10.05;2.85;;;;;;;15.21;61.72;99316.56;5093309;28;20031;-47
2022/12/26 09:00:42;;;;;;;5.80;2.90;;;;;;;15.20;61.32;99325.56;5093176;28;20020;-47
2022/12/26 09:03:08;;;;;;;8.65;3.20;;;;;;;15.27;61.28;99316.53;5091850;28;20066;-47
2022/12/26 09:05:33;;;;;;;9.90;3.90;;;;;;;15.35;60.91;99321.56;5093054;28;20035;-47
2022/12/26 09:07:59;;;;;;;10.18;4.68;;;;;;;15.33;61.36;99313.03;5091770;28;20111;-47
2022/12/26 09:10:25;;;;;;;6.05;3.13;;;;;;;15.41;60.48;99327.81;5092951;28;20032;-47
2022/12/26 09:12:50;;;;;;;7.90;4.88;;;;;;;15.38;60.38;99342.28;5091761;28;20031;-47
2022/12/26 09:15:16;;;;;;;5.65;2.92;;;;;;;15.38;60.29;99339.63;5092836;28;20035;-47
2022/12/26 09:17:41;;;;;;;7.75;3.90;;;;;;;15.44;60.80;99355.69;5092838;28;20024;-47
2022/12/26 09:20:07;;;;;;;4.63;2.95;;;;;;;15.62;59.94;99371.63;5090859;28;20115;-47
2022/12/26 09:22:51;;;;;;;11.10;3.05;;;;;;;15.65;59.76;99346.53;5092793;28;20102;-47
2022/12/26 09:25:24;;;;;;;5.75;2.67;;;;;;;15.62;59.44;99345.16;5091239;28;20039;-47
2022/12/26 09:27:52;;;;;;;6.55;3.20;;;;;;;15.60;59.71;99331.31;5091694;28;20019;-47
2022/12/26 09:30:19;;;;;;;6.30;2.60;;;;;;;15.62;60.00;99353.09;5092624;28;20237;-47
2022/12/26 09:32:45;;;;;;;8.13;3.17;;;;;;;15.71;59.58;99349.13;5092613;28;20026;-47
2022/12/26 09:35:11;;;;;;;6.90;3.63;;;;;;;15.80;59.41;99351.56;5074251;28;20028;-47
2022/12/26 09:37:36;;;;;;;7.72;3.47;;;;;;;15.87;60.64;99347.00;5092526;28;20020;-47
2022/12/26 09:40:03;;;;;;;6.00;3.05;;;;;;;15.89;59.64;99376.69;5092547;28;20052;-47
2022/12/26 09:42:53;;;;;;;4.57;2.40;;;;;;;15.90;59.28;99383.63;5092376;28;20056;-47
2022/12/26 09:45:31;;;;;;;7.15;4.75;;;;;;;16.02;58.77;99379.22;5092427;28;20028;-47
2022/12/26 09:48:42;;;;;;;6.78;2.78;;;;;;;16.09;58.26;99384.44;5092445;28;20510;-47
2022/12/26 09:51:09;;;;;;;20.38;9.90;;;;;;;15.97;58.52;99390.44;5029897;28;20033;-47
2022/12/26 09:53:38;;;;;;;22.05;8.95;;;;;;;15.90;58.33;99381.78;5013247;28;20036;-47
2022/12/26 09:56:14;;;;;;;8.18;5.65;;;;;;;15.82;58.86;99392.66;5029781;28;20021;-47
2022/12/26 09:58:46;;;;;;;16.02;7.93;;;;;;;15.82;58.75;99374.13;5029864;28;20048;-47
2022/12/26 10:01:25;;;;;;;32.75;12.68;;;;;;;15.84;59.72;99392.44;5013453;28;20142;-47
2022/12/26 10:03:56;;;;;;;6.93;4.15;;;;;;;16.07;57.92;99395.25;5029861;28;20495;-47
2022/12/26 10:06:27;;;;;;;5.22;2.55;;;;;;;16.10;57.99;99394.03;5029701;28;20048;-47
2022/12/26 10:09:20;;;;;;;7.85;3.13;;;;;;;16.12;58.47;99384.03;5029833;28;20036;-47
2022/12/26 10:12:04;;;;;;;3.60;1.90;;;;;;;16.14;57.99;99411.91;5029623;28;20061;-47
2022/12/26 10:14:35;;;;;;;5.97;2.83;;;;;;;16.23;58.71;99407.13;5013119;28;20033;-47
2022/12/26 10:17:23;;;;;;;7.15;3.00;;;;;;;16.56;57.76;99398.81;5029649;28;20562;-47
2022/12/26 10:20:06;;;;;;;6.07;3.25;;;;;;;16.74;56.66;99390.06;5013119;28;20478;-47
2022/12/26 10:23:06;;;;;;;6.90;3.75;;;;;;;16.90;56.23;99378.06;5029598;28;20593;-47
2022/12/26 10:25:52;;;;;;;5.25;2.60;;;;;;;17.00;55.82;99377.50;5072473;28;20291;-47
2022/12/26 10:28:27;;;;;;;7.35;2.88;;;;;;;17.09;55.33;99383.31;5090869;28;20020;-47
2022/12/26 10:30:57;;;;;;;5.95;2.30;;;;;;;17.11;54.94;99390.00;5094551;28;20023;-47
2022/12/26 10:33:52;;;;;;;8.10;2.78;;;;;;;16.91;55.74;99379.66;5096085;28;20028;-47
2022/12/26 10:36:30;;;;;;;4.35;2.30;;;;;;;16.77;56.02;99363.09;5082736;28;20053;-47
2022/12/26 10:38:58;;;;;;;5.00;2.65;;;;;;;16.72;56.52;99385.97;5094752;28;20028;-47
2022/12/26 10:41:46;;;;;;;7.20;3.28;;;;;;;16.66;56.04;99376.28;5094619;28;20024;-47
2022/12/26 10:44:13;;;;;;;5.00;2.38;;;;;;;16.73;56.17;99369.88;5095854;28;20024;-47
2022/12/26 10:47:00;;;;;;;8.35;2.92;;;;;;;16.88;55.67;99374.00;5094429;28;20028;-47
2022/12/26 10:49:26;;;;;;;6.10;2.80;;;;;;;16.99;55.07;99359.19;5095819;28;20073;-47
2022/12/26 10:51:55;;;;;;;6.10;3.40;;;;;;;16.93;55.27;99387.41;5094422;28;20027;-47
2022/12/26 10:54:21;;;;;;;7.10;2.80;;;;;;;16.82;55.49;99385.50;5094375;28;20379;-47
2022/12/26 10:56:49;;;;;;;7.57;2.80;;;;;;;16.86;55.79;99391.97;5094285;28;20024;-47
2022/12/26 10:59:20;;;;;;;7.13;2.78;;;;;;;16.77;55.68;99386.94;5094264;28;20017;-47
2022/12/26 11:01:46;;;;;;;6.20;2.70;;;;;;;16.70;55.85;99415.38;5095599;28;20501;-47
2022/12/26 11:04:22;;;;;;;6.93;4.18;;;;;;;16.65;55.99;99401.19;5094253;28;20027;-47
2022/12/26 11:06:53;;;;;;;7.28;3.40;;;;;;;16.70;55.86;99390.69;5095550;28;20028;-47
2022/12/26 11:09:41;;;;;;;6.47;3.60;;;;;;;16.70;55.79;99401.31;5095481;28;20066;-47
2022/12/26 11:12:18;;;;;;;8.68;4.75;;;;;;;16.60;56.13;99393.91;5095492;28;20032;-47
2022/12/26 11:14:45;;;;;;;6.65;4.70;;;;;;;16.56;56.33;99392.72;5095369;28;20039;-47
2022/12/26 11:17:13;;;;;;;7.30;3.33;;;;;;;16.51;56.08;99389.91;5093863;28;20028;-47
2022/12/26 11:19:43;;;;;;;17.63;4.05;;;;;;;16.50;56.43;99412.13;5093885;28;20025;-47
2022/12/26 11:22:28;;;;;;;7.88;2.88;;;;;;;16.44;56.43;99384.69;5095169;28;20401;-47
2022/12/26 11:25:09;;;;;;;5.95;2.40;;;;;;;16.43;56.37;99398.97;5093662;28;20044;-47
2022/12/26 11:27:42;;;;;;;10.32;2.10;;;;;;;16.38;56.78;99385.59;5095074;28;20031;-47
2022/12/26 11:30:12;;;;;;;5.10;2.72;;;;;;;16.39;56.75;99381.88;5093785;28;20048;-47
2022/12/26 11:32:39;;;;;;;5.93;2.72;;;;;;;16.44;56.66;99365.31;5095007;28;20115;-47
2022/12/26 11:35:06;;;;;;;5.00;2.75;;;;;;;16.47;56.34;99376.28;5093610;28;20032;-47
2022/12/26 11:37:41;;;;;;;6.75;2.70;;;;;;;16.50;56.79;99375.88;5094768;28;20028;-47
2022/12/26 11:40:29;;;;;;;4.47;2.15;;;;;;;16.55;56.52;99373.34;5093718;28;20085;-47
2022/12/26 11:42:57;;;;;;;6.38;2.40;;;;;;;16.58;56.42;99367.63;5093966;28;20028;-47
2022/12/26 11:45:26;;;;;;;4.60;2.55;;;;;;;16.56;56.24;99380.28;5094697;28;20029;-47
2022/12/26 11:47:55;;;;;;;5.05;2.40;;;;;;;16.53;56.43;99359.50;5093327;28;20024;-47
2022/12/26 11:50:28;;;;;;;8.35;4.05;;;;;;;16.49;56.86;99363.63;5094568;28;20024;-47
2022/12/26 11:52:56;;;;;;;5.10;3.28;;;;;;;16.57;57.21;99367.84;5093318;28;20032;-47
2022/12/26 11:55:22;;;;;;;4.57;2.30;;;;;;;16.75;56.23;99354.53;5094445;28;20020;-47
2022/12/26 11:58:07;;;;;;;7.20;2.58;;;;;;;16.81;55.76;99366.13;5094473;28;20013;-47
2022/12/26 12:00:40;;;;;;;5.73;3.10;;;;;;;16.82;56.27;99349.22;5093193;28;20119;-47
2022/12/26 12:03:16;;;;;;;6.65;3.05;;;;;;;16.85;55.62;99361.19;5093078;28;20339;-47
2022/12/26 12:05:48;;;;;;;5.22;2.78;;;;;;;16.80;55.64;99353.88;5093090;28;20020;-47
2022/12/26 12:08:51;;;;;;;4.82;2.72;;;;;;;16.80;55.89;99361.00;5094367;28;20059;-47
2022/12/26 12:11:31;;;;;;;5.65;2.67;;;;;;;16.85;55.61;99354.03;5094200;28;20024;-47
2022/12/26 12:14:09;;;;;;;3.97;2.03;;;;;;;16.90;55.30;99346.25;5092937;28;20024;-47
2022/12/26 12:16:51;;;;;;;8.77;3.33;;;;;;;16.81;55.95;99344.91;5094085;28;20020;-47
2022/12/26 12:19:44;;;;;;;6.88;2.55;;;;;;;17.07;55.41;99358.84;5094153;28;20052;-47
2022/12/26 12:22:42;;;;;;;5.63;2.70;;;;;;;17.13;55.08;99350.78;5092687;28;20622;-47
2022/12/26 12:25:39;;;;;;;10.52;4.55;;;;;;;17.19;55.90;99341.13;5093797;28;20048;-47
2022/12/26 12:28:24;;;;;;;6.65;3.17;;;;;;;17.27;54.12;99340.78;5092635;28;20028;-47
2022/12/26 12:31:31;;;;;;;8.27;2.88;;;;;;;17.17;54.50;99356.47;5093853;28;20027;-47
2022/12/26 12:34:19;;;;;;;10.45;3.97;;;;;;;17.04;55.71;99351.34;5081627;28;20028;-47
2022/12/26 12:37:10;;;;;;;8.95;3.17;;;;;;;17.11;54.68;99326.34;5093584;28;20016;-47
2022/12/26 12:39:41;;;;;;;5.05;2.63;;;;;;;17.03;54.76;99355.03;5093742;28;20109;-47
2022/12/26 12:42:25;;;;;;;12.98;4.28;;;;;;;17.10;54.42;99337.16;5093586;28;20024;-47
2022/12/26 12:45:08;;;;;;;10.57;3.33;;;;;;;17.12;54.50;99343.88;5093612;28;20028;-47
2022/12/26 12:48:01;;;;;;;8.30;3.10;;;;;;;17.19;54.88;99358.88;5092213;28;20048;-47
2022/12/26 12:50:34;;;;;;;5.82;2.40;;;;;;;17.22;55.04;99348.63;5093555;28;20478;-47
2022/12/26 12:53:21;;;;;;;11.05;3.80;;;;;;;17.20;54.81;99344.59;5092106;28;20031;-47
2022/12/26 12:55:58;;;;;;;8.85;3.35;;;;;;;17.14;54.72;99320.59;5092021;28;20485;-47
2022/12/26 12:58:42;;;;;;;5.22;2.95;;;;;;;17.04;55.29;99343.38;5093356;28;20032;-47
2022/12/26 13:01:14;;;;;;;9.43;3.92;;;;;;;17.00;55.31;99345.66;5093244;28;20027;-47
2022/12/26 13:03:49;;;;;;;10.15;4.53;;;;;;;17.03;55.14;99344.44;5093208;28;20028;-47
2022/12/26 13:06:21;;;;;;;6.00;2.70;;;;;;;16.96;54.88;99361.25;5091913;28;20079;-47
2022/12/26 13:08:59;;;;;;;8.50;4.30;;;;;;;16.90;55.40;99334.81;5091882;28;20093;-47
2022/12/26 13:11:34;;;;;;;9.55;4.35;;;;;;;16.79;55.86;99376.13;5091770;28;20645;-47
2022/12/26 13:14:06;;;;;;;13.80;4.25;;;;;;;16.79;56.34;99373.47;5093037;28;20035;-47
2022/12/26 13:16:42;;;;;;;5.47;3.30;;;;;;;16.76;56.50;99392.47;5092936;28;20464;-47
2022/12/26 13:19:24;;;;;;;8.70;3.75;;;;;;;16.58;57.89;99385.38;5092952;28;20027;-47
2022/12/26 13:21:53;;;;;;;8.00;3.50;;;;;;;16.53;60.03;99371.97;5091573;28;20039;-47
2022/12/26 13:24:26;;;;;;;6.03;3.10;;;;;;;16.15;62.32;99392.31;5091503;28;20405;-46
2022/12/26 13:27:06;;;;;;;5.78;3.55;;;;;;;15.75;65.47;99397.16;5092816;28;20039;-46
2022/12/26 13:29:38;;;;;;;8.25;4.25;;;;;;;15.54;68.27;99374.53;5091736;28;20024;-46
2022/12/26 13:32:18;;;;;;;7.20;3.63;;;;;;;15.63;69.80;99381.16;5092705;28;20631;-46
2022/12/26 13:34:45;;;;;;;7.80;3.60;;;;;;;15.84;70.92;99381.84;5074798;28;20035;-47
2022/12/26 13:37:39;;;;;;;6.45;3.85;;;;;;;15.96;72.09;99380.09;5091174;28;20386;-47
2022/12/26 13:40:18;;;;;;;11.35;4.50;;;;;;;15.97;72.49;99373.78;5092483;28;20028;-47
2022/12/26 13:45:46;;;;;;;8.75;4.18;;;;;;;16.19;69.29;99368.88;5092721;28;20074;-47
2022/12/26 13:48:15;;;;;;;6.65;3.40;;;;;;;16.32;67.19;99371.38;5092456;28;20494;-47
2022/12/26 13:50:55;;;;;;;10.32;3.83;;;;;;;16.36;68.54;99377.06;5091040;28;20031;-47
2022/12/26 13:53:23;;;;;;;10.15;4.15;;;;;;;16.48;68.01;99372.63;5091089;28;20057;-47
2022/12/26 13:55:51;;;;;;;9.45;4.30;;;;;;;16.70;68.93;99372.97;5092213;28;20047;-47